Frankenstein, Missouri
Current Conditions -  °F | °C
As of 12:57 AM on Friday 31 Oct 2014 (Local Time) from KJEF Reporting Station
Moderate Fog Moderate Fog  
Wind Chill: 43°   Ceiling: 200
Heat Index: 43°   Visibility: 0.5mi
Dew Point: 42°   Wind: 3mph
Humidity: 97%   Direction: 300°WNW
Pressure: 30.1"   Gusts: NA
Location:  38.559°N, 91.9214°W
Report Text: KJEF 310557Z AUTO 30003KT 1/2SM FG VV002 06/06 A3010 RMK AO2 T00610056
Loading
Personal Weather Stations






























Interactive Weather Map
Tropical Storm Tracking
New forecast layout! Learn more

10-Day Weather Forecast

Advertisements
Track Severe Weather on mobile